Time;durP1;ratioP1;P1;durP2;ratioP2;P2;SDS_P1;SDS_P2;PMS_P1;PMS_P2;Temp;Humidity;BMP_temperature;BMP_pressure;BME280_temperature;BME280_humidity;BME280_pressure;Samples;Min_cycle;Max_cycle;Signal;HPM_P1;HPM_P2
2021/03/03 00:01:05;;;;;;;0.40;0.30;;;;;;;0.58;93.40;102612.44;5056935;28;20834;-69
2021/03/03 00:03:31;;;;;;;0.50;0.50;;;;;;;0.49;93.55;102616.22;5055048;28;20450;-71
2021/03/03 00:05:57;;;;;;;0.50;0.40;;;;;;;0.53;93.50;102621.97;5054970;28;20865;-71
2021/03/03 00:08:23;;;;;;;0.40;0.30;;;;;;;0.54;92.14;102611.16;5054897;28;20501;-69
2021/03/03 00:10:49;;;;;;;2.30;0.80;;;;;;;0.52;91.50;102610.50;5054774;28;20450;-70
2021/03/03 00:13:15;;;;;;;0.60;0.47;;;;;;;0.41;91.72;102611.78;5054558;28;20917;-71
2021/03/03 00:15:41;;;;;;;1.13;1.07;;;;;;;0.32;92.98;102612.06;5054655;28;20476;-71
2021/03/03 00:18:07;;;;;;;4.93;1.53;;;;;;;0.32;92.50;102606.72;5054745;28;20524;-70
2021/03/03 00:20:33;;;;;;;0.60;0.60;;;;;;;0.40;92.32;102611.94;5054691;28;20442;-70
2021/03/03 00:22:59;;;;;;;0.40;0.30;;;;;;;0.38;91.90;102619.31;5054566;28;20462;-70
2021/03/03 00:25:25;;;;;;;4.10;1.47;;;;;;;0.29;92.10;102618.56;5054622;28;20862;-70
2021/03/03 00:27:52;;;;;;;1.07;0.97;;;;;;;0.36;92.65;102611.50;5054366;28;20454;-69
2021/03/03 00:30:19;;;;;;;0.60;0.60;;;;;;;0.36;92.66;102618.69;5054301;28;20481;-70
2021/03/03 00:32:45;;;;;;;0.40;0.30;;;;;;;0.28;92.46;102610.78;5054428;28;20466;-71
2021/03/03 00:35:12;;;;;;;0.40;0.30;;;;;;;0.20;92.87;102609.84;5056360;28;20437;-71
2021/03/03 00:37:38;;;;;;;2.30;1.53;;;;;;;0.21;93.01;102614.16;5055593;28;20446;-69
2021/03/03 00:40:05;;;;;;;0.60;0.40;;;;;;;0.24;92.62;102616.44;5054458;28;21023;-70
2021/03/03 00:42:31;;;;;;;10.70;1.83;;;;;;;0.20;91.88;102615.16;5054180;28;20889;-72
2021/03/03 00:44:58;;;;;;;0.50;0.50;;;;;;;0.19;91.88;102620.69;5054360;28;20442;-70
2021/03/03 00:47:24;;;;;;;0.80;0.80;;;;;;;0.13;92.20;102614.22;5054285;28;20442;-70
2021/03/03 00:49:50;;;;;;;0.40;0.40;;;;;;;0.32;91.82;102609.41;5054063;28;20482;-70
2021/03/03 00:52:16;;;;;;;0.40;0.33;;;;;;;0.42;90.60;102604.63;5054064;28;20469;-70
2021/03/03 00:54:43;;;;;;;1.87;1.77;;;;;;;0.23;91.49;102593.50;5053893;28;20442;-70
2021/03/03 00:57:09;;;;;;;0.53;0.53;;;;;;;0.12;92.86;102599.25;5054040;28;20525;-70
2021/03/03 00:59:35;;;;;;;0.40;0.30;;;;;;;0.22;92.43;102590.97;5053750;28;20437;-71
2021/03/03 01:02:02;;;;;;;0.40;0.30;;;;;;;0.30;92.03;102582.09;5053790;28;20470;-70
2021/03/03 01:04:28;;;;;;;1.13;1.10;;;;;;;0.44;91.49;102578.59;5053893;28;20461;-71
2021/03/03 01:06:54;;;;;;;0.97;0.80;;;;;;;0.36;91.40;102576.88;5053867;28;20446;-70
2021/03/03 01:09:21;;;;;;;0.93;0.50;;;;;;;0.27;92.16;102566.44;5053479;28;20478;-71
2021/03/03 01:11:47;;;;;;;0.60;0.50;;;;;;;0.32;92.37;102569.41;5053677;28;20477;-70
2021/03/03 01:14:13;;;;;;;0.40;0.30;;;;;;;0.28;92.55;102566.28;5053777;28;20525;-70
2021/03/03 01:16:39;;;;;;;0.90;0.90;;;;;;;0.15;92.29;102558.94;5053616;28;20442;-70
2021/03/03 01:19:06;;;;;;;0.40;0.40;;;;;;;0.18;93.26;102563.91;5053582;28;20478;-71
2021/03/03 01:21:32;;;;;;;2.90;1.00;;;;;;;0.11;93.69;102565.63;5053525;28;20515;-71
2021/03/03 01:23:58;;;;;;;0.70;0.50;;;;;;;0.11;92.22;102562.97;5053582;28;20472;-71
2021/03/03 01:26:24;;;;;;;1.57;0.93;;;;;;;0.19;91.90;102554.91;5053217;28;20960;-70
2021/03/03 01:28:50;;;;;;;0.60;0.60;;;;;;;0.13;90.43;102552.13;5053392;28;20453;-70
2021/03/03 01:31:16;;;;;;;1.07;1.07;;;;;;;0.06;90.90;102561.88;5053000;28;20934;-70
2021/03/03 01:33:42;;;;;;;0.80;0.80;;;;;;;0.01;91.03;102562.41;5053549;28;20491;-70
2021/03/03 01:36:08;;;;;;;0.40;0.30;;;;;;;-0.05;91.51;102552.47;5053439;28;20442;-70
2021/03/03 01:38:34;;;;;;;0.90;0.60;;;;;;;-0.03;91.19;102545.97;5053259;28;20449;-70
2021/03/03 01:41:00;;;;;;;1.27;1.00;;;;;;;-0.02;91.40;102549.44;5052718;28;20477;-71
2021/03/03 01:43:30;;;;;;;0.97;0.97;;;;;;;0.07;91.67;102550.19;5053208;28;20819;-70
2021/03/03 01:45:56;;;;;;;0.70;0.70;;;;;;;-0.03;93.12;102545.13;5053326;28;20801;-70
2021/03/03 01:48:22;;;;;;;0.50;0.40;;;;;;;0.00;92.19;102542.13;5052855;28;20504;-71
2021/03/03 01:50:48;;;;;;;0.40;0.30;;;;;;;0.06;91.55;102537.91;5053062;28;20527;-71
2021/03/03 01:53:15;;;;;;;0.50;0.50;;;;;;;-0.03;91.42;102529.16;5053137;28;20446;-71
2021/03/03 01:55:41;;;;;;;0.40;0.30;;;;;;;-0.01;90.63;102516.47;5053106;28;20445;-70
2021/03/03 01:58:07;;;;;;;2.57;0.90;;;;;;;0.04;89.61;102514.06;5053044;28;20453;-70
2021/03/03 02:00:33;;;;;;;0.50;0.40;;;;;;;-0.09;89.42;102516.56;5053004;28;20951;-71
2021/03/03 02:02:59;;;;;;;1.43;1.23;;;;;;;-0.22;91.03;102513.69;5053116;28;20862;-71
2021/03/03 02:05:26;;;;;;;0.40;0.30;;;;;;;-0.28;91.47;102513.41;5052981;28;20822;-71
2021/03/03 02:07:59;;;;;;;0.40;0.40;;;;;;;-0.19;91.49;102513.34;5052922;28;20465;-71
2021/03/03 02:10:35;;;;;;;0.40;0.30;;;;;;;-0.17;91.19;102517.47;5052974;28;20494;-71
2021/03/03 02:13:08;;;;;;;0.40;0.30;;;;;;;-0.18;91.27;102517.66;5052582;28;20472;-70
2021/03/03 02:15:37;;;;;;;0.60;0.60;;;;;;;-0.20;91.19;102509.84;5052635;28;20924;-71
2021/03/03 02:18:07;;;;;;;0.60;0.50;;;;;;;-0.29;91.46;102511.75;5052828;28;20481;-70
2021/03/03 02:20:44;;;;;;;0.80;0.80;;;;;;;-0.35;91.70;102501.84;5052776;28;20465;-70
2021/03/03 02:23:14;;;;;;;0.40;0.30;;;;;;;-0.36;92.12;102502.00;5052611;28;20433;-70
2021/03/03 02:25:43;;;;;;;0.70;0.70;;;;;;;-0.34;91.56;102502.66;5052990;28;20538;-70
2021/03/03 02:28:12;;;;;;;0.50;0.50;;;;;;;-0.20;91.49;102491.22;5059000;28;20442;-70
2021/03/03 02:30:39;;;;;;;0.50;0.50;;;;;;;-0.13;90.47;102488.66;5054989;28;20572;-72
2021/03/03 02:33:06;;;;;;;1.50;1.23;;;;;;;-0.19;91.28;102486.72;5052853;28;20434;-71
2021/03/03 02:35:33;;;;;;;0.87;0.70;;;;;;;-0.21;91.92;102475.44;5052763;28;20438;-71
2021/03/03 02:37:59;;;;;;;0.97;0.60;;;;;;;-0.13;91.37;102475.34;5052395;28;20442;-70
2021/03/03 02:40:27;;;;;;;2.53;0.60;;;;;;;-0.02;90.68;102462.38;5052375;28;20472;-70
2021/03/03 02:42:55;;;;;;;0.40;0.30;;;;;;;0.03;90.42;102455.66;5052253;28;20872;-70
2021/03/03 02:45:24;;;;;;;0.97;0.87;;;;;;;0.00;91.28;102454.22;5052579;28;20623;-71
2021/03/03 02:47:51;;;;;;;0.50;0.47;;;;;;;-0.15;91.74;102448.88;5052672;28;20504;-70
2021/03/03 02:50:17;;;;;;;0.90;0.90;;;;;;;-0.29;93.34;102445.19;5052817;28;21032;-70
2021/03/03 02:52:49;;;;;;;1.33;1.23;;;;;;;-0.26;93.75;102441.34;5055339;28;20470;-71
2021/03/03 02:55:15;;;;;;;0.40;0.40;;;;;;;-0.24;93.11;102438.50;5056344;28;20516;-70
2021/03/03 02:57:42;;;;;;;0.50;0.40;;;;;;;-0.18;92.42;102443.09;5056335;28;20464;-70
2021/03/03 03:00:11;;;;;;;0.50;0.40;;;;;;;-0.26;91.57;102433.38;5056380;28;20451;-71
2021/03/03 03:02:41;;;;;;;0.40;0.30;;;;;;;-0.23;90.85;102438.31;5056112;28;20458;-71
2021/03/03 03:05:10;;;;;;;10.93;1.33;;;;;;;-0.24;90.94;102436.66;5056294;28;20503;-71
2021/03/03 03:07:41;;;;;;;0.40;0.30;;;;;;;-0.31;91.79;102427.75;5056095;28;20434;-70
2021/03/03 03:10:13;;;;;;;1.70;1.30;;;;;;;-0.24;90.51;102427.84;5056029;28;20812;-70
2021/03/03 03:12:43;;;;;;;0.40;0.30;;;;;;;-0.33;90.62;102427.13;5056096;28;20465;-70
2021/03/03 03:15:14;;;;;;;1.63;1.13;;;;;;;-0.39;90.68;102438.50;5056038;28;20438;-69
2021/03/03 03:17:41;;;;;;;0.97;0.87;;;;;;;-0.46;90.84;102435.72;5055896;28;20430;-70
2021/03/03 03:20:09;;;;;;;0.40;0.30;;;;;;;-0.50;90.58;102426.44;5055924;28;20807;-70
2021/03/03 03:22:35;;;;;;;0.50;0.43;;;;;;;-0.60;90.98;102437.38;5055767;28;20458;-70
2021/03/03 03:25:03;;;;;;;0.60;0.50;;;;;;;-0.47;90.40;102428.75;5055059;28;20450;-71
2021/03/03 03:27:31;;;;;;;0.90;0.80;;;;;;;-0.52;91.52;102431.16;5055616;28;20445;-70
2021/03/03 03:29:59;;;;;;;0.40;0.30;;;;;;;-0.48;92.75;102434.28;5055630;28;20489;-69
2021/03/03 03:32:26;;;;;;;0.60;0.50;;;;;;;-0.33;92.35;102430.59;5055167;28;20537;-71
2021/03/03 03:34:53;;;;;;;0.40;0.40;;;;;;;-0.35;91.98;102431.81;5055585;28;20442;-71
2021/03/03 03:37:21;;;;;;;1.47;1.37;;;;;;;-0.44;92.09;102419.56;5055307;28;20940;-69
2021/03/03 03:39:47;;;;;;;0.40;0.40;;;;;;;-0.46;91.92;102432.25;5055255;28;20997;-70
2021/03/03 03:42:15;;;;;;;0.40;0.40;;;;;;;-0.46;91.80;102429.59;5055411;28;20494;-69
2021/03/03 03:44:42;;;;;;;0.40;0.30;;;;;;;-0.29;91.69;102429.22;5055420;28;20445;-70
2021/03/03 03:47:10;;;;;;;0.50;0.50;;;;;;;-0.26;91.37;102431.53;5055430;28;20493;-69
2021/03/03 03:49:37;;;;;;;0.40;0.40;;;;;;;-0.37;91.98;102425.81;5055220;28;20489;-69
2021/03/03 03:52:03;;;;;;;1.43;0.80;;;;;;;-0.39;92.05;102418.03;5055231;28;20461;-68
2021/03/03 03:54:29;;;;;;;0.40;0.40;;;;;;;-0.54;92.39;102411.84;5054900;28;20439;-69
2021/03/03 03:56:55;;;;;;;0.80;0.77;;;;;;;-0.41;92.52;102414.72;5055160;28;20477;-70
2021/03/03 03:59:21;;;;;;;0.40;0.30;;;;;;;-0.33;91.38;102417.28;5054733;28;20944;-70
2021/03/03 04:01:47;;;;;;;6.70;1.20;;;;;;;-0.35;91.45;102416.66;5055005;28;20469;-70
2021/03/03 04:04:13;;;;;;;1.80;1.33;;;;;;;-0.43;92.45;102415.91;5054533;28;20442;-69
2021/03/03 04:06:40;;;;;;;0.50;0.43;;;;;;;-0.46;92.24;102416.28;5054988;28;20446;-69
2021/03/03 04:09:06;;;;;;;1.00;1.00;;;;;;;-0.42;92.76;102417.56;5054853;28;20453;-69
2021/03/03 04:11:31;;;;;;;0.40;0.30;;;;;;;-0.38;91.77;102411.69;5054795;28;20811;-69
2021/03/03 04:13:57;;;;;;;0.50;0.50;;;;;;;-0.34;89.99;102412.97;5054869;28;20441;-69
2021/03/03 04:16:23;;;;;;;0.40;0.40;;;;;;;-0.47;89.06;102402.16;5054843;28;20442;-69
2021/03/03 04:18:49;;;;;;;2.00;0.80;;;;;;;-0.58;89.56;102405.25;5054764;28;20967;-70
2021/03/03 04:21:15;;;;;;;0.57;0.47;;;;;;;-0.65;90.06;102401.66;5054629;28;20473;-70
2021/03/03 04:23:42;;;;;;;1.07;1.00;;;;;;;-0.65;90.63;102401.66;5054641;28;20795;-67
2021/03/03 04:26:08;;;;;;;0.77;0.77;;;;;;;-0.69;90.70;102401.19;5054629;28;20842;-67
2021/03/03 04:28:34;;;;;;;0.40;0.30;;;;;;;-0.67;90.25;102399.19;5054266;28;20450;-66
2021/03/03 04:31:00;;;;;;;0.73;0.73;;;;;;;-0.68;90.54;102402.03;5053900;28;20494;-67
2021/03/03 04:33:26;;;;;;;0.63;0.60;;;;;;;-0.60;90.37;102391.31;5054426;28;20438;-67
2021/03/03 04:35:52;;;;;;;0.40;0.40;;;;;;;-0.62;88.56;102399.47;5054457;28;20442;-67
2021/03/03 04:38:18;;;;;;;0.60;0.60;;;;;;;-0.75;89.38;102396.63;5055714;28;20936;-67
2021/03/03 04:40:45;;;;;;;0.40;0.40;;;;;;;-0.83;90.05;102400.19;5054255;28;20939;-67
2021/03/03 04:43:12;;;;;;;0.97;0.87;;;;;;;-0.81;91.23;102395.47;5054260;28;20860;-66
2021/03/03 04:45:37;;;;;;;1.90;0.73;;;;;;;-0.79;92.37;102390.81;5054250;28;20450;-66
2021/03/03 04:48:04;;;;;;;0.60;0.60;;;;;;;-0.82;92.63;102390.34;5054213;28;20445;-66
2021/03/03 04:50:30;;;;;;;0.73;0.73;;;;;;;-0.69;91.17;102389.75;5054024;28;20535;-66
2021/03/03 04:52:56;;;;;;;0.73;0.73;;;;;;;-0.85;90.65;102383.53;5054040;28;20454;-67
2021/03/03 04:55:22;;;;;;;0.67;0.67;;;;;;;-0.90;90.50;102387.75;5054073;28;20450;-67
2021/03/03 04:57:48;;;;;;;0.40;0.40;;;;;;;-1.04;90.19;102384.06;5056242;28;20454;-66
2021/03/03 05:00:16;;;;;;;0.67;0.67;;;;;;;-0.96;90.60;102383.19;5054319;28;20465;-66
2021/03/03 05:02:41;;;;;;;3.43;0.80;;;;;;;-1.02;92.11;102387.34;5053743;28;20470;-66
2021/03/03 05:05:08;;;;;;;0.60;0.60;;;;;;;-0.97;92.61;102387.69;5053646;28;20787;-67
2021/03/03 05:07:34;;;;;;;0.50;0.50;;;;;;;-0.89;92.52;102386.75;5054472;28;20457;-65
2021/03/03 05:10:00;;;;;;;1.07;1.00;;;;;;;-0.72;92.11;102382.09;5053730;28;20477;-65
2021/03/03 05:12:27;;;;;;;0.77;0.77;;;;;;;-0.66;91.16;102373.41;5053649;28;20462;-66
2021/03/03 05:14:54;;;;;;;1.60;1.50;;;;;;;-0.66;90.22;102368.09;5052907;28;20434;-65
2021/03/03 05:17:20;;;;;;;1.03;0.80;;;;;;;-0.71;90.03;102371.28;5053581;28;20438;-65
2021/03/03 05:19:46;;;;;;;0.80;0.80;;;;;;;-0.78;89.90;102365.88;5053565;28;20438;-65
2021/03/03 05:22:13;;;;;;;5.23;0.93;;;;;;;-0.90;90.38;102364.66;5053492;28;20477;-66
2021/03/03 05:24:39;;;;;;;0.50;0.50;;;;;;;-0.87;91.50;102363.47;5053467;28;20544;-64
2021/03/03 05:27:05;;;;;;;0.60;0.50;;;;;;;-1.00;92.86;102358.78;5053531;28;21007;-65
2021/03/03 05:29:31;;;;;;;4.57;4.33;;;;;;;-1.03;93.17;102367.09;5053289;28;20478;-66
2021/03/03 05:31:59;;;;;;;0.50;0.50;;;;;;;-0.98;92.35;102362.06;5053149;28;20481;-65
2021/03/03 05:34:25;;;;;;;0.63;0.63;;;;;;;-0.90;92.32;102361.16;5053113;28;20970;-65
2021/03/03 05:36:51;;;;;;;0.40;0.40;;;;;;;-0.97;93.32;102365.53;5053326;28;20450;-65
2021/03/03 05:39:17;;;;;;;2.53;2.43;;;;;;;-0.89;93.00;102373.44;5053213;28;20438;-65
2021/03/03 05:41:44;;;;;;;0.70;0.70;;;;;;;-0.77;91.84;102370.19;5053171;28;20466;-65
2021/03/03 05:44:10;;;;;;;0.77;0.77;;;;;;;-0.72;91.14;102366.16;5053210;28;20442;-64
2021/03/03 05:46:37;;;;;;;0.60;0.50;;;;;;;-0.85;90.96;102362.28;5053166;28;20450;-65
2021/03/03 05:49:05;;;;;;;1.80;1.70;;;;;;;-0.87;91.20;102366.13;5052726;28;20974;-65
2021/03/03 05:51:32;;;;;;;4.50;1.47;;;;;;;-0.84;91.67;102369.28;5053056;28;20462;-65
2021/03/03 05:53:59;;;;;;;1.57;1.47;;;;;;;-0.92;91.49;102363.19;5053065;28;20465;-65
2021/03/03 05:56:25;;;;;;;0.60;0.43;;;;;;;-0.96;91.51;102365.38;5053015;28;20438;-65
2021/03/03 05:58:53;;;;;;;0.90;0.90;;;;;;;-0.95;90.97;102360.88;5053002;28;20442;-65
2021/03/03 06:01:19;;;;;;;0.60;0.60;;;;;;;-1.01;90.17;102357.13;5052563;28;20976;-65
2021/03/03 06:03:45;;;;;;;2.77;1.80;;;;;;;-1.06;89.33;102363.00;5052949;28;20453;-67
2021/03/03 06:06:12;;;;;;;0.40;0.30;;;;;;;-0.93;89.03;102362.38;5052908;28;20469;-66
2021/03/03 06:08:38;;;;;;;0.43;0.43;;;;;;;-0.84;88.84;102360.44;5052785;28;20448;-66
2021/03/03 06:11:05;;;;;;;4.57;2.87;;;;;;;-0.75;88.84;102364.69;5052736;28;20482;-65
2021/03/03 06:13:31;;;;;;;0.40;0.30;;;;;;;-0.89;89.51;102366.28;5052528;28;20986;-67
2021/03/03 06:15:57;;;;;;;3.97;1.93;;;;;;;-0.97;90.65;102381.50;5052893;28;20454;-66
2021/03/03 06:18:25;;;;;;;0.40;0.40;;;;;;;-0.97;91.34;102377.03;5052857;28;20457;-66
2021/03/03 06:20:53;;;;;;;1.13;0.50;;;;;;;-0.87;90.13;102377.59;5052429;28;20466;-67
2021/03/03 06:23:21;;;;;;;0.83;0.70;;;;;;;-0.96;90.39;102378.69;5052569;28;20921;-66
2021/03/03 06:25:49;;;;;;;1.03;0.80;;;;;;;-0.79;89.80;102372.19;5053383;28;20873;-67
2021/03/03 06:28:31;;;;;;;0.40;0.30;;;;;;;-0.71;89.43;102359.81;5056564;28;20529;-66
2021/03/03 06:30:57;;;;;;;1.70;1.60;;;;;;;-0.70;88.69;102358.81;5054785;28;21002;-66
2021/03/03 06:33:24;;;;;;;0.40;0.40;;;;;;;-0.83;89.83;102356.78;5056914;28;20438;-66
2021/03/03 06:35:51;;;;;;;0.40;0.40;;;;;;;-0.93;90.76;102346.41;5056602;28;20473;-66
2021/03/03 06:38:25;;;;;;;0.60;0.60;;;;;;;-0.84;89.64;102349.78;5056782;28;20446;-66
2021/03/03 06:40:54;;;;;;;0.40;0.30;;;;;;;-0.89;90.40;102341.53;5056659;28;20425;-67
2021/03/03 06:43:22;;;;;;;1.60;1.27;;;;;;;-0.79;91.19;102342.94;5056310;28;20952;-66
2021/03/03 06:45:49;;;;;;;5.73;2.50;;;;;;;-0.65;90.74;102343.13;5056608;28;20450;-67
2021/03/03 06:48:37;;;;;;;0.60;0.53;;;;;;;-0.54;90.94;102345.31;5056519;28;20441;-66
2021/03/03 06:51:18;;;;;;;0.70;0.70;;;;;;;-0.46;90.94;102353.22;5056393;28;20486;-66
2021/03/03 06:53:44;;;;;;;0.80;0.80;;;;;;;-0.59;92.31;102345.88;5056471;28;20426;-68
2021/03/03 06:56:11;;;;;;;5.30;3.40;;;;;;;-0.44;92.15;102345.91;5056505;28;20445;-68
2021/03/03 06:58:37;;;;;;;0.70;0.70;;;;;;;-0.52;93.14;102345.97;5056146;28;20939;-67
2021/03/03 07:01:03;;;;;;;1.07;0.97;;;;;;;-0.51;94.13;102329.81;5056232;28;20492;-68
2021/03/03 07:03:33;;;;;;;0.73;0.70;;;;;;;-0.26;93.02;102343.66;5055984;28;20449;-67
2021/03/03 07:06:00;;;;;;;0.50;0.40;;;;;;;-0.17;93.14;102338.25;5056275;28;20492;-67
2021/03/03 07:08:26;;;;;;;2.93;0.77;;;;;;;-0.07;93.05;102330.78;5056182;28;20474;-65
2021/03/03 07:10:52;;;;;;;0.50;0.50;;;;;;;-0.15;93.59;102328.22;5055983;28;20485;-66
2021/03/03 07:13:35;;;;;;;0.50;0.40;;;;;;;0.00;92.51;102326.38;5056115;28;20499;-67
2021/03/03 07:16:04;;;;;;;1.07;1.00;;;;;;;-0.02;91.60;102333.69;5056076;28;20475;-65
2021/03/03 07:18:35;;;;;;;0.50;0.50;;;;;;;0.05;91.03;102323.13;5055786;28;20445;-66
2021/03/03 07:21:02;;;;;;;0.43;0.37;;;;;;;0.19;91.26;102333.75;5055860;28;20515;-66
2021/03/03 07:23:48;;;;;;;2.47;2.27;;;;;;;0.28;91.57;102330.97;5055909;28;20453;-66
2021/03/03 07:26:15;;;;;;;0.80;0.80;;;;;;;0.28;91.45;102330.97;5057179;28;21012;-65
2021/03/03 07:28:42;;;;;;;0.80;0.67;;;;;;;0.35;92.60;102331.84;5056399;28;20445;-66
2021/03/03 07:31:11;;;;;;;0.50;0.40;;;;;;;0.48;92.76;102323.97;5055374;28;20490;-66
2021/03/03 07:33:37;;;;;;;2.17;2.00;;;;;;;0.50;92.32;102329.94;5055469;28;20446;-66
2021/03/03 07:36:05;;;;;;;0.43;0.37;;;;;;;0.61;92.73;102318.75;5055711;28;20508;-66
2021/03/03 07:38:33;;;;;;;0.70;0.57;;;;;;;0.65;93.00;102313.88;5054711;28;20454;-66
2021/03/03 07:41:08;;;;;;;0.50;0.50;;;;;;;0.80;93.39;102322.63;5055245;28;20979;-67
2021/03/03 07:43:35;;;;;;;1.83;1.13;;;;;;;0.89;94.35;102315.31;5055215;28;20445;-67
2021/03/03 07:46:07;;;;;;;1.60;1.50;;;;;;;1.05;94.85;102317.66;5055503;28;20905;-67
2021/03/03 07:48:35;;;;;;;1.13;1.07;;;;;;;1.11;96.04;102319.56;5055424;28;20445;-66
2021/03/03 07:51:02;;;;;;;1.57;1.13;;;;;;;1.20;96.87;102318.41;5055315;28;20512;-67
2021/03/03 07:53:29;;;;;;;0.80;0.50;;;;;;;1.30;96.99;102307.38;5055108;28;20525;-67
2021/03/03 07:55:57;;;;;;;2.40;1.17;;;;;;;1.44;97.22;102303.75;5055282;28;20474;-68
2021/03/03 07:58:24;;;;;;;0.70;0.60;;;;;;;1.61;96.96;102304.25;5055260;28;20450;-67
2021/03/03 08:00:51;;;;;;;0.60;0.60;;;;;;;1.83;97.09;102312.13;5055114;28;20438;-66
2021/03/03 08:03:40;;;;;;;1.20;1.13;;;;;;;2.01;97.33;102309.72;5054947;28;20971;-66
2021/03/03 08:06:37;;;;;;;2.03;1.57;;;;;;;2.22;97.83;102308.75;5055430;28;20419;-67
2021/03/03 08:09:13;;;;;;;1.20;1.13;;;;;;;2.37;98.35;102305.91;5055157;28;20455;-66
2021/03/03 08:11:42;;;;;;;0.50;0.50;;;;;;;2.44;98.54;102304.88;5054973;28;20494;-67
2021/03/03 08:14:32;;;;;;;3.10;2.90;;;;;;;2.65;98.54;102300.34;5055073;28;20485;-66
2021/03/03 08:16:59;;;;;;;0.73;0.73;;;;;;;2.82;98.87;102296.22;5054712;28;20938;-66
2021/03/03 08:19:59;;;;;;;3.00;1.70;;;;;;;3.00;99.01;102299.09;5054705;28;20975;-67
2021/03/03 08:22:49;;;;;;;4.27;3.20;;;;;;;3.17;99.01;102294.13;5054517;28;20466;-66
2021/03/03 08:25:43;;;;;;;0.90;0.90;;;;;;;3.32;99.02;102295.72;5054843;28;20423;-66
2021/03/03 08:28:29;;;;;;;1.07;1.07;;;;;;;3.51;99.60;102292.19;5054521;28;20437;-66
2021/03/03 08:31:30;;;;;;;0.50;0.50;;;;;;;3.64;99.01;102286.78;5054341;28;20567;-66
2021/03/03 08:33:59;;;;;;;3.23;3.00;;;;;;;3.72;98.27;102289.22;5054674;28;20532;-66
2021/03/03 08:36:49;;;;;;;0.60;0.60;;;;;;;3.79;97.27;102291.84;5054531;28;20496;-66
2021/03/03 08:39:35;;;;;;;7.60;2.40;;;;;;;3.91;97.23;102289.34;5054517;28;20446;-66
2021/03/03 08:42:22;;;;;;;0.80;0.80;;;;;;;3.99;97.01;102281.06;5054075;28;20498;-66
2021/03/03 08:44:59;;;;;;;2.93;1.87;;;;;;;4.20;97.87;102282.56;5054082;28;20585;-67
2021/03/03 08:47:47;;;;;;;7.73;1.80;;;;;;;4.48;98.04;102276.81;5054093;28;20450;-67
2021/03/03 08:50:33;;;;;;;6.30;1.77;;;;;;;4.67;97.71;102277.66;5054190;28;20477;-67
2021/03/03 08:53:29;;;;;;;11.20;1.43;;;;;;;4.83;97.08;102284.38;5054042;28;20468;-67
2021/03/03 08:55:57;;;;;;;2.50;2.30;;;;;;;4.91;96.48;102282.19;5054061;28;20840;-71
2021/03/03 08:58:49;;;;;;;1.93;1.30;;;;;;;5.06;96.05;102284.53;5053894;28;20430;-69
2021/03/03 09:01:16;;;;;;;2.10;1.93;;;;;;;5.15;95.69;102275.16;5054109;28;20466;-69
2021/03/03 09:03:42;;;;;;;4.63;2.40;;;;;;;5.24;95.72;102275.69;5054036;28;20446;-69
2021/03/03 09:06:08;;;;;;;3.17;1.57;;;;;;;5.49;94.47;102281.81;5054101;28;20441;-69
2021/03/03 09:08:35;;;;;;;6.10;1.07;;;;;;;5.75;93.83;102275.25;5053951;28;20457;-68
2021/03/03 09:11:01;;;;;;;1.43;1.00;;;;;;;5.87;93.12;102277.19;5053747;28;20490;-68
2021/03/03 09:13:28;;;;;;;15.77;3.03;;;;;;;6.02;92.37;102273.06;5053799;28;20442;-69
2021/03/03 09:16:05;;;;;;;7.27;3.67;;;;;;;6.12;91.35;102253.69;5053682;28;20446;-70
2021/03/03 09:18:31;;;;;;;3.50;2.63;;;;;;;6.16;90.90;102256.75;5053765;28;20450;-69
2021/03/03 09:21:05;;;;;;;1.93;1.83;;;;;;;6.21;90.42;102255.00;5053652;28;20446;-69
2021/03/03 09:23:31;;;;;;;3.97;2.10;;;;;;;6.34;90.71;102262.03;5053734;28;20513;-69
2021/03/03 09:25:58;;;;;;;2.53;1.90;;;;;;;6.56;90.47;102262.31;5053639;28;20434;-69
2021/03/03 09:28:38;;;;;;;2.60;2.10;;;;;;;6.79;89.58;102264.19;5053314;28;20943;-69
2021/03/03 09:31:04;;;;;;;4.20;2.87;;;;;;;6.96;88.19;102258.94;5053229;28;20533;-69
2021/03/03 09:33:31;;;;;;;2.93;2.63;;;;;;;6.99;87.28;102263.81;5053558;28;20431;-69
2021/03/03 09:35:57;;;;;;;3.43;3.13;;;;;;;7.14;87.20;102266.06;5054396;28;20438;-70
2021/03/03 09:38:23;;;;;;;5.57;3.03;;;;;;;7.25;86.21;102262.50;5055270;28;20469;-68
2021/03/03 09:40:49;;;;;;;4.93;2.10;;;;;;;7.32;85.92;102253.25;5053428;28;20434;-70
2021/03/03 09:43:16;;;;;;;1.70;1.53;;;;;;;7.35;85.79;102251.97;5053389;28;20446;-69
2021/03/03 09:45:42;;;;;;;4.17;2.93;;;;;;;7.41;85.59;102261.78;5053077;28;20454;-69
2021/03/03 09:48:10;;;;;;;5.30;3.10;;;;;;;7.58;85.41;102254.59;5053320;28;20461;-70
2021/03/03 09:50:36;;;;;;;5.43;2.53;;;;;;;7.73;84.96;102258.63;5053356;28;20481;-69
2021/03/03 09:53:03;;;;;;;1.67;1.57;;;;;;;7.81;84.29;102245.56;5055471;28;20474;-69
2021/03/03 09:55:32;;;;;;;4.17;2.57;;;;;;;7.89;84.14;102246.25;5065589;28;20540;-69
2021/03/03 09:57:59;;;;;;;7.00;2.20;;;;;;;7.97;84.14;102238.59;5053345;28;20796;-69
2021/03/03 10:00:28;;;;;;;1.80;1.53;;;;;;;8.08;84.17;102243.09;5052383;28;20550;-69
2021/03/03 10:02:55;;;;;;;7.90;2.60;;;;;;;8.17;83.50;102248.91;5052834;28;20462;-70
2021/03/03 10:05:23;;;;;;;5.63;5.07;;;;;;;8.23;83.42;102247.94;5053368;28;20445;-70
2021/03/03 10:07:50;;;;;;;7.50;2.70;;;;;;;8.39;83.89;102243.66;5053142;28;20819;-68
2021/03/03 10:10:17;;;;;;;3.17;2.97;;;;;;;8.50;81.67;102244.63;5052821;28;21009;-67
2021/03/03 10:12:44;;;;;;;2.50;2.30;;;;;;;8.53;81.51;102231.44;5052902;28;20837;-68
2021/03/03 10:15:12;;;;;;;3.83;3.53;;;;;;;8.57;81.83;102234.47;5053063;28;20435;-67
2021/03/03 10:17:42;;;;;;;8.33;1.70;;;;;;;8.68;81.35;102224.66;5053130;28;20439;-67
2021/03/03 10:20:27;;;;;;;4.80;3.50;;;;;;;8.76;81.49;102232.31;5052997;28;20438;-70
2021/03/03 10:22:53;;;;;;;14.27;5.97;;;;;;;8.88;81.16;102233.03;5052914;28;20461;-69
2021/03/03 10:25:32;;;;;;;5.90;3.03;;;;;;;8.93;80.14;102225.00;5052967;28;20447;-69
2021/03/03 10:28:07;;;;;;;5.50;2.53;;;;;;;9.06;79.77;102223.81;5052926;28;20426;-68
2021/03/03 10:30:34;;;;;;;1.40;1.30;;;;;;;9.22;79.47;102225.66;5052657;28;20477;-68
2021/03/03 10:33:01;;;;;;;4.23;2.20;;;;;;;9.33;78.65;102222.00;5053375;28;20458;-72
2021/03/03 10:35:30;;;;;;;15.80;4.70;;;;;;;9.42;78.39;102222.38;5052654;28;20446;-65
2021/03/03 10:38:09;;;;;;;4.03;3.10;;;;;;;9.44;77.18;102224.84;5052767;28;20450;-67
2021/03/03 10:40:39;;;;;;;14.97;3.30;;;;;;;9.52;78.51;102222.53;5052719;28;20464;-69
2021/03/03 10:43:10;;;;;;;10.27;5.00;;;;;;;9.58;77.68;102210.66;5054050;28;20512;-68
2021/03/03 10:45:37;;;;;;;6.93;2.93;;;;;;;9.70;78.01;102210.53;5052298;28;20438;-68
2021/03/03 10:48:04;;;;;;;3.40;2.30;;;;;;;9.84;77.23;102195.50;5052478;28;20438;-68
2021/03/03 10:50:31;;;;;;;8.30;5.43;;;;;;;9.98;77.12;102186.97;5052396;28;20481;-68
2021/03/03 10:52:59;;;;;;;6.93;2.10;;;;;;;10.17;77.01;102181.97;5052446;28;20458;-68
2021/03/03 10:55:31;;;;;;;10.47;2.30;;;;;;;10.33;76.88;102184.59;5052617;28;20476;-68
2021/03/03 10:58:08;;;;;;;5.50;3.67;;;;;;;10.57;75.62;102184.19;5052630;28;20430;-67
2021/03/03 11:01:00;;;;;;;6.10;3.97;;;;;;;10.81;75.19;102177.31;5052556;28;20495;-68
2021/03/03 11:03:28;;;;;;;2.70;1.53;;;;;;;11.06;73.22;102175.78;5052488;28;20431;-67
2021/03/03 11:05:55;;;;;;;8.30;3.70;;;;;;;11.21;71.44;102178.56;5052430;28;20439;-67
2021/03/03 11:08:22;;;;;;;4.73;2.00;;;;;;;11.40;71.08;102178.06;5052511;28;20446;-68
2021/03/03 11:10:49;;;;;;;2.30;2.10;;;;;;;11.59;70.62;102169.16;5052459;28;20489;-68
2021/03/03 11:13:15;;;;;;;10.53;4.33;;;;;;;11.79;70.17;102167.56;5054186;28;20460;-68
2021/03/03 11:15:41;;;;;;;10.23;5.17;;;;;;;12.00;68.84;102163.81;5056142;28;20446;-68
2021/03/03 11:18:09;;;;;;;3.87;2.73;;;;;;;12.23;67.83;102161.63;5056014;28;20446;-68
2021/03/03 11:20:37;;;;;;;3.67;2.40;;;;;;;12.48;67.78;102158.84;5056040;28;20449;-68
2021/03/03 11:23:03;;;;;;;12.53;6.00;;;;;;;12.69;67.12;102148.75;5055665;28;21044;-68
2021/03/03 11:25:29;;;;;;;5.17;3.60;;;;;;;12.94;66.38;102150.59;5055674;28;20813;-68
2021/03/03 11:27:55;;;;;;;3.33;2.80;;;;;;;13.29;66.34;102151.53;5055866;28;20446;-67
2021/03/03 11:30:22;;;;;;;9.67;6.50;;;;;;;13.61;62.68;102143.72;5055649;28;20482;-68
2021/03/03 11:32:49;;;;;;;10.53;3.17;;;;;;;13.94;60.28;102135.00;5055806;28;20458;-69
2021/03/03 11:35:16;;;;;;;15.77;2.60;;;;;;;14.35;59.30;102138.19;5055443;28;20458;-68
2021/03/03 11:37:42;;;;;;;9.03;3.37;;;;;;;14.73;57.81;102130.16;5055796;28;20446;-67